createdAt,value
2018-07-20T00:00:10.686Z,16.84
2018-07-20T00:02:39.101Z,16.82
2018-07-20T00:05:20.560Z,16.75
2018-07-20T00:07:49.041Z,16.70
2018-07-20T00:10:17.524Z,16.68
2018-07-20T00:12:46.011Z,16.67
2018-07-20T00:15:14.490Z,16.78
2018-07-20T00:17:42.933Z,16.86
2018-07-20T00:20:11.437Z,16.91
2018-07-20T00:22:39.924Z,16.97
2018-07-20T00:25:08.400Z,16.88
2018-07-20T00:27:36.846Z,16.78
2018-07-20T00:30:05.722Z,16.81
2018-07-20T00:32:34.237Z,16.85
2018-07-20T00:35:02.750Z,16.82
2018-07-20T00:37:31.243Z,16.82
2018-07-20T00:39:59.711Z,16.82
2018-07-20T00:42:28.193Z,16.79
2018-07-20T00:44:57.240Z,16.71
2018-07-20T00:47:25.799Z,16.70
2018-07-20T00:49:54.689Z,16.72
2018-07-20T00:52:23.297Z,16.74
2018-07-20T00:54:51.923Z,16.73
2018-07-20T00:57:20.761Z,16.71
2018-07-20T00:59:49.297Z,16.67
2018-07-20T01:02:17.773Z,16.58
2018-07-20T01:04:46.885Z,16.50
2018-07-20T01:07:15.370Z,16.37
2018-07-20T01:09:43.922Z,16.27
2018-07-20T01:12:12.403Z,16.22
2018-07-20T01:14:40.832Z,16.23
2018-07-20T01:17:09.440Z,16.23
2018-07-20T01:19:37.966Z,16.27
2018-07-20T01:22:06.433Z,16.30
2018-07-20T01:24:34.926Z,16.34
2018-07-20T01:27:03.426Z,16.33
2018-07-20T01:29:31.838Z,16.25
2018-07-20T01:32:00.381Z,16.19
2018-07-20T01:34:28.848Z,16.12
2018-07-20T01:36:57.345Z,15.99
2018-07-20T01:39:25.936Z,15.97
2018-07-20T01:41:54.520Z,15.97
2018-07-20T01:44:23.044Z,15.97
2018-07-20T01:46:51.555Z,15.91
2018-07-20T01:49:19.981Z,15.86
2018-07-20T01:51:56.312Z,15.84
2018-07-20T01:54:24.821Z,15.82
2018-07-20T01:56:53.536Z,15.81
2018-07-20T01:59:21.972Z,15.76
2018-07-20T02:01:50.413Z,15.77
2018-07-20T02:04:18.925Z,15.81
2018-07-20T02:06:47.769Z,15.80
2018-07-20T02:09:16.308Z,15.66
2018-07-20T02:11:44.788Z,15.50
2018-07-20T02:14:13.252Z,15.41
2018-07-20T02:16:41.766Z,15.37
2018-07-20T02:19:10.222Z,15.42
2018-07-20T02:21:38.744Z,15.44
2018-07-20T02:24:07.324Z,15.42
2018-07-20T02:26:35.743Z,15.42
2018-07-20T02:29:04.197Z,15.43
2018-07-20T02:31:32.757Z,15.44
2018-07-20T02:34:01.254Z,15.34
2018-07-20T02:36:29.686Z,15.24
2018-07-20T02:38:58.192Z,15.15
2018-07-20T02:41:26.680Z,15.12
2018-07-20T02:43:55.146Z,15.16
2018-07-20T02:46:36.244Z,15.17
2018-07-20T02:49:04.726Z,15.20
2018-07-20T02:51:33.160Z,15.21
2018-07-20T02:54:01.683Z,15.21
2018-07-20T02:56:30.346Z,15.15
2018-07-20T02:58:58.849Z,15.09
2018-07-20T03:01:27.325Z,15.01
2018-07-20T03:03:55.743Z,14.93
2018-07-20T03:06:24.187Z,14.92
2018-07-20T03:08:52.615Z,14.86
2018-07-20T03:11:21.050Z,14.83
2018-07-20T03:13:49.552Z,14.81
2018-07-20T03:16:25.173Z,14.85
2018-07-20T03:18:53.677Z,14.85
2018-07-20T03:21:22.135Z,14.85
2018-07-20T03:23:50.628Z,14.89
2018-07-20T03:26:19.166Z,14.94
2018-07-20T03:28:47.568Z,14.87
2018-07-20T03:31:16.070Z,14.83
2018-07-20T03:33:44.546Z,14.86
2018-07-20T03:36:13.045Z,14.88
2018-07-20T03:38:41.509Z,14.84
2018-07-20T03:41:10.005Z,14.81
2018-07-20T03:43:38.532Z,14.83
2018-07-20T03:46:07.080Z,14.83
2018-07-20T03:48:35.580Z,14.84
2018-07-20T03:51:04.130Z,14.84
2018-07-20T03:53:32.611Z,14.80
2018-07-20T03:56:01.250Z,14.70
2018-07-20T03:58:29.784Z,14.53
2018-07-20T04:00:58.260Z,14.46
2018-07-20T04:03:26.695Z,14.49
2018-07-20T04:05:55.266Z,14.58
2018-07-20T04:08:24.508Z,14.60
2018-07-20T04:10:53.007Z,14.66
2018-07-20T04:13:21.489Z,14.73
2018-07-20T04:15:49.983Z,14.77
2018-07-20T04:18:18.570Z,14.79
2018-07-20T04:20:47.052Z,14.81
2018-07-20T04:23:15.530Z,14.88
2018-07-20T04:25:44.002Z,14.93
2018-07-20T04:28:12.485Z,14.99
2018-07-20T04:30:41.021Z,15.09
2018-07-20T04:33:09.547Z,15.08
2018-07-20T04:35:38.017Z,15.08
2018-07-20T04:38:06.584Z,15.08
2018-07-20T04:40:35.107Z,15.11
2018-07-20T04:43:03.678Z,15.22
2018-07-20T04:45:32.314Z,15.30
2018-07-20T04:48:00.729Z,15.39
2018-07-20T04:50:29.237Z,15.51
2018-07-20T04:52:58.035Z,15.63
2018-07-20T04:55:26.601Z,15.81
2018-07-20T04:57:55.053Z,15.95
2018-07-20T05:00:23.552Z,16.09
2018-07-20T05:02:52.063Z,16.22
2018-07-20T05:05:20.557Z,16.33
2018-07-20T05:07:49.123Z,16.42
2018-07-20T05:10:17.613Z,16.50
2018-07-20T05:12:46.081Z,16.53
2018-07-20T05:15:14.560Z,16.58
2018-07-20T05:17:43.080Z,16.69
2018-07-20T05:20:11.676Z,16.74
2018-07-20T05:22:40.207Z,16.81
2018-07-20T05:25:08.748Z,16.89
2018-07-20T05:27:37.284Z,16.94
2018-07-20T05:30:06.176Z,16.96
2018-07-20T05:32:34.640Z,17.02
2018-07-20T05:35:03.257Z,17.12
2018-07-20T05:37:31.731Z,17.22
2018-07-20T05:40:00.193Z,17.33
2018-07-20T05:42:28.631Z,17.44
2018-07-20T05:44:57.096Z,17.55
2018-07-20T05:47:25.675Z,17.60
2018-07-20T05:49:54.223Z,17.68
2018-07-20T05:52:22.812Z,17.76
2018-07-20T05:54:51.290Z,17.90
2018-07-20T05:57:19.777Z,17.95
2018-07-20T05:59:48.263Z,18.05
2018-07-20T06:02:17.068Z,18.17
2018-07-20T06:04:45.504Z,18.23
2018-07-20T06:07:14.067Z,18.34
2018-07-20T06:09:42.588Z,18.47
2018-07-20T06:12:11.117Z,18.54
2018-07-20T06:14:39.657Z,18.60
2018-07-20T06:17:08.150Z,18.59
2018-07-20T06:19:36.642Z,18.66
2018-07-20T06:22:22.111Z,18.77
2018-07-20T06:24:50.553Z,18.83
2018-07-20T06:27:19.000Z,18.91
2018-07-20T06:29:47.600Z,19.02
2018-07-20T06:32:16.142Z,19.07
2018-07-20T06:34:44.619Z,19.15
2018-07-20T06:37:13.145Z,19.28
2018-07-20T06:39:41.575Z,19.34
2018-07-20T06:42:10.109Z,19.50
2018-07-20T06:44:38.655Z,19.60
2018-07-20T06:47:07.478Z,19.75
2018-07-20T06:49:36.010Z,19.86
2018-07-20T06:52:04.478Z,19.95
2018-07-20T06:54:32.991Z,20.02
2018-07-20T06:57:01.477Z,20.13
2018-07-20T06:59:30.043Z,20.26
2018-07-20T07:01:58.520Z,20.20
2018-07-20T07:04:27.006Z,20.26
2018-07-20T07:06:55.490Z,20.31
2018-07-20T07:09:24.115Z,20.40
2018-07-20T07:11:52.553Z,20.41
2018-07-20T07:14:21.091Z,20.45
2018-07-20T07:16:49.559Z,20.51
2018-07-20T07:19:18.836Z,20.61
2018-07-20T07:21:47.414Z,20.72
2018-07-20T07:24:15.961Z,20.71
2018-07-20T07:26:44.484Z,20.72
2018-07-20T07:29:12.926Z,20.78
2018-07-20T07:31:41.711Z,20.83
2018-07-20T07:34:10.242Z,20.95
2018-07-20T07:36:38.813Z,21.08
2018-07-20T07:39:10.665Z,21.20
2018-07-20T07:41:39.161Z,21.26
2018-07-20T07:44:07.644Z,21.38
2018-07-20T07:46:36.217Z,21.46
2018-07-20T07:49:05.509Z,21.52
2018-07-20T07:51:34.096Z,21.67
2018-07-20T07:54:02.574Z,21.79
2018-07-20T07:56:31.172Z,21.85
2018-07-20T07:58:59.745Z,21.93
2018-07-20T08:01:28.226Z,22.03
2018-07-20T08:03:56.818Z,22.04
2018-07-20T08:06:25.303Z,22.19
2018-07-20T08:08:53.781Z,22.23
2018-07-20T08:11:22.212Z,22.21
2018-07-20T08:13:50.752Z,22.23
2018-07-20T08:16:19.326Z,22.27
2018-07-20T08:18:47.805Z,22.32
2018-07-20T08:21:16.409Z,22.41
2018-07-20T08:23:44.984Z,22.50
2018-07-20T08:26:13.572Z,22.65
2018-07-20T08:28:42.041Z,22.81
2018-07-20T08:31:10.636Z,22.90
2018-07-20T08:33:39.880Z,23.08
2018-07-20T08:36:08.332Z,23.08
2018-07-20T08:38:36.836Z,23.13
2018-07-20T08:41:05.432Z,23.24
2018-07-20T08:43:33.961Z,23.37
2018-07-20T08:46:02.437Z,23.33
2018-07-20T08:48:30.924Z,23.35
2018-07-20T08:50:59.392Z,23.49
2018-07-20T08:53:27.857Z,23.63
2018-07-20T08:55:56.584Z,23.71
2018-07-20T08:58:25.264Z,23.76
2018-07-20T09:00:53.778Z,23.84
2018-07-20T09:03:22.356Z,23.93
2018-07-20T09:05:50.915Z,24.09
2018-07-20T09:08:19.405Z,24.18
2018-07-20T09:10:47.977Z,24.16
2018-07-20T09:13:16.443Z,24.23
2018-07-20T09:15:44.926Z,24.31
2018-07-20T09:18:13.512Z,24.41
2018-07-20T09:20:42.083Z,24.37
2018-07-20T09:23:10.787Z,24.33
2018-07-20T09:25:39.311Z,24.40
2018-07-20T09:28:08.063Z,24.52
2018-07-20T09:30:36.593Z,24.56
2018-07-20T09:33:05.116Z,24.60
2018-07-20T09:35:33.642Z,24.74
2018-07-20T09:38:02.203Z,24.96
2018-07-20T09:40:30.810Z,24.95
2018-07-20T09:42:59.270Z,24.94
2018-07-20T09:45:27.694Z,25.01
2018-07-20T09:47:56.229Z,25.10
2018-07-20T09:50:24.723Z,25.13
2018-07-20T09:52:53.165Z,25.19
2018-07-20T09:55:21.642Z,25.13
2018-07-20T09:57:50.126Z,25.10
2018-07-20T10:01:21.629Z,25.24
2018-07-20T10:03:50.199Z,25.37
2018-07-20T10:06:18.633Z,25.55
2018-07-20T10:08:47.151Z,25.63
2018-07-20T10:11:15.745Z,25.82
2018-07-20T10:13:44.314Z,25.86
2018-07-20T10:16:12.789Z,25.95
2018-07-20T10:18:42.413Z,26.08
2018-07-20T10:21:10.925Z,26.14
2018-07-20T10:23:39.460Z,26.23
2018-07-20T10:26:08.873Z,26.31
2018-07-20T10:28:37.363Z,26.36
2018-07-20T10:31:05.834Z,26.38
2018-07-20T10:33:34.352Z,26.62
2018-07-20T10:36:02.891Z,26.83
2018-07-20T10:38:31.475Z,27.19
2018-07-20T10:41:01.005Z,27.47
2018-07-20T10:43:29.566Z,27.42
2018-07-20T10:45:58.104Z,27.42
2018-07-20T10:48:26.663Z,27.63
2018-07-20T10:50:55.321Z,27.94
2018-07-20T10:53:23.812Z,28.13
2018-07-20T10:55:52.281Z,28.09
2018-07-20T10:58:20.758Z,28.19
2018-07-20T11:00:49.197Z,28.44
2018-07-20T11:03:17.746Z,28.42
2018-07-20T11:05:46.312Z,28.55
2018-07-20T11:08:14.794Z,28.60
2018-07-20T11:10:43.370Z,28.34
2018-07-20T11:13:11.828Z,28.47
2018-07-20T11:15:40.459Z,28.59
2018-07-20T11:18:08.913Z,28.51
2018-07-20T11:20:37.361Z,28.63
2018-07-20T11:23:05.914Z,28.75
2018-07-20T11:25:34.474Z,28.54
2018-07-20T11:28:10.837Z,28.36
2018-07-20T11:30:39.327Z,28.50
2018-07-20T11:33:07.825Z,28.72
2018-07-20T11:35:36.388Z,29.15
2018-07-20T11:38:04.868Z,29.75
2018-07-20T11:40:33.326Z,30.20
2018-07-20T11:43:01.916Z,30.53
2018-07-20T11:45:30.413Z,30.87
2018-07-20T11:47:58.869Z,31.16
2018-07-20T11:50:28.084Z,31.65
2018-07-20T11:52:56.571Z,31.88
2018-07-20T11:55:25.025Z,32.03
2018-07-20T11:57:53.526Z,32.39
2018-07-20T12:00:21.994Z,32.49
2018-07-20T12:02:50.696Z,32.34
2018-07-20T12:05:19.200Z,32.48
2018-07-20T12:07:47.865Z,32.82
2018-07-20T12:10:16.409Z,33.09
2018-07-20T12:12:44.933Z,33.63
2018-07-20T12:15:13.389Z,33.97
2018-07-20T12:17:41.857Z,33.99
2018-07-20T12:20:10.576Z,33.93
2018-07-20T12:22:39.014Z,34.07
2018-07-20T12:25:07.581Z,34.37
2018-07-20T12:27:36.221Z,34.57
2018-07-20T12:30:05.222Z,34.58
2018-07-20T12:32:33.795Z,34.37
2018-07-20T12:35:02.327Z,34.51
2018-07-20T12:37:30.872Z,34.50
2018-07-20T12:39:59.346Z,34.35
2018-07-20T12:42:27.938Z,34.58
2018-07-20T12:44:56.508Z,34.74
2018-07-20T12:47:25.006Z,34.90
2018-07-20T12:49:53.687Z,35.10
2018-07-20T12:53:13.126Z,35.10
2018-07-20T12:55:41.661Z,34.90
2018-07-20T12:58:10.228Z,34.89
2018-07-20T13:00:38.709Z,34.70
2018-07-20T13:03:07.172Z,34.50
2018-07-20T13:05:35.724Z,34.31
2018-07-20T13:08:13.121Z,34.30
2018-07-20T13:10:41.651Z,34.27
2018-07-20T13:13:10.122Z,34.33
2018-07-20T13:15:38.684Z,34.16
2018-07-20T13:18:07.266Z,33.76
2018-07-20T13:20:35.873Z,33.39
2018-07-20T13:23:04.359Z,33.29
2018-07-20T13:25:32.837Z,33.53
2018-07-20T13:28:01.446Z,33.68
2018-07-20T13:30:29.994Z,34.00
2018-07-20T13:32:58.473Z,33.97
2018-07-20T13:35:27.223Z,33.96
2018-07-20T13:37:56.462Z,33.85
2018-07-20T13:40:24.953Z,33.75
2018-07-20T13:42:53.569Z,34.01
2018-07-20T13:45:22.020Z,33.87
2018-07-20T13:47:50.516Z,33.56
2018-07-20T13:50:18.980Z,33.36
2018-07-20T13:52:47.496Z,33.47
2018-07-20T13:55:15.982Z,33.53
2018-07-20T13:57:44.525Z,33.38
2018-07-20T14:00:13.013Z,33.73
2018-07-20T14:02:41.598Z,34.15
2018-07-20T14:05:10.080Z,33.81
2018-07-20T14:07:38.548Z,33.48
2018-07-20T14:10:07.009Z,33.72
2018-07-20T14:12:35.490Z,33.82
2018-07-20T14:15:04.048Z,33.89
2018-07-20T14:17:32.582Z,33.52
2018-07-20T14:20:01.027Z,32.99
2018-07-20T14:22:29.544Z,32.76
2018-07-20T14:24:58.055Z,32.56
2018-07-20T14:27:26.600Z,32.68
2018-07-20T14:29:55.056Z,32.77
2018-07-20T14:32:23.539Z,32.85
2018-07-20T14:34:56.345Z,32.84
2018-07-20T14:37:24.844Z,32.82
2018-07-20T14:39:53.445Z,32.93
2018-07-20T14:42:21.898Z,32.76
2018-07-20T14:44:50.381Z,32.67
2018-07-20T14:47:19.023Z,32.55
2018-07-20T14:49:47.595Z,32.49
2018-07-20T14:52:16.101Z,32.49
2018-07-20T14:55:03.361Z,32.38
2018-07-20T14:57:31.957Z,32.22
2018-07-20T15:00:00.517Z,31.97
2018-07-20T15:02:29.007Z,32.02
2018-07-20T15:04:57.717Z,32.01
2018-07-20T15:07:26.285Z,31.96
2018-07-20T15:09:54.761Z,31.98
2018-07-20T15:12:23.324Z,31.77
2018-07-20T15:14:51.803Z,31.57
2018-07-20T15:17:20.297Z,31.53
2018-07-20T15:19:48.736Z,31.66
2018-07-20T15:22:17.262Z,31.71
2018-07-20T15:24:45.897Z,31.64
2018-07-20T15:27:14.633Z,31.70
2018-07-20T15:29:43.305Z,31.74
2018-07-20T15:32:12.003Z,31.74
2018-07-20T15:34:40.473Z,31.41
2018-07-20T15:37:09.055Z,31.45
2018-07-20T15:39:37.544Z,31.45
2018-07-20T15:42:06.044Z,31.33
2018-07-20T15:44:34.632Z,31.36
2018-07-20T15:47:03.293Z,31.19
2018-07-20T15:49:31.792Z,31.15
2018-07-20T15:54:28.958Z,31.28
2018-07-20T15:56:57.468Z,31.19
2018-07-20T15:59:26.003Z,31.05
2018-07-20T16:01:54.470Z,30.71
2018-07-20T16:04:23.014Z,30.60
2018-07-20T16:06:51.647Z,30.39
2018-07-20T16:09:20.241Z,30.45
2018-07-20T16:11:48.724Z,30.52
2018-07-20T16:14:17.210Z,30.62
2018-07-20T16:16:45.664Z,30.80
2018-07-20T16:19:14.168Z,30.76
2018-07-20T16:21:42.805Z,30.62
2018-07-20T16:24:11.328Z,30.50
2018-07-20T16:26:39.820Z,30.30
2018-07-20T16:29:08.413Z,30.16
2018-07-20T16:31:36.876Z,29.80
2018-07-20T16:34:05.377Z,29.70
2018-07-20T16:36:33.872Z,29.42
2018-07-20T16:39:02.493Z,29.09
2018-07-20T16:41:31.000Z,28.79
2018-07-20T16:43:59.447Z,28.56
2018-07-20T16:46:28.024Z,28.39
2018-07-20T16:48:56.554Z,28.17
2018-07-20T16:51:25.182Z,27.99
2018-07-20T16:53:53.621Z,27.88
2018-07-20T16:56:22.075Z,27.74
2018-07-20T16:58:50.561Z,27.68
2018-07-20T17:01:19.020Z,27.68
2018-07-20T17:03:47.452Z,27.53
2018-07-20T17:06:16.043Z,27.45
2018-07-20T17:08:44.601Z,27.56
2018-07-20T17:11:13.056Z,27.70
2018-07-20T17:13:41.549Z,27.77
2018-07-20T17:16:10.076Z,27.95
2018-07-20T17:18:39.136Z,28.07
2018-07-20T17:21:07.744Z,28.25
2018-07-20T17:23:37.244Z,28.24
2018-07-20T17:26:06.137Z,28.20
2018-07-20T17:28:34.789Z,28.20
2018-07-20T17:31:03.305Z,28.00
2018-07-20T17:33:31.983Z,27.81
2018-07-20T17:36:00.419Z,27.66
2018-07-20T17:45:19.203Z,27.37
2018-07-20T17:47:47.668Z,27.30
2018-07-20T17:50:16.136Z,27.08
2018-07-20T17:52:44.607Z,26.88
2018-07-20T17:55:17.122Z,26.79
2018-07-20T17:57:45.670Z,26.75
2018-07-20T18:00:14.354Z,26.75
2018-07-20T18:02:42.847Z,26.68
2018-07-20T18:05:11.436Z,26.60
2018-07-20T18:07:39.862Z,26.51
2018-07-20T18:10:08.393Z,26.38
2018-07-20T18:12:36.973Z,26.24
2018-07-20T18:15:06.283Z,26.11
2018-07-20T18:17:34.797Z,25.99
2018-07-20T18:20:03.286Z,25.81
2018-07-20T18:22:31.848Z,25.72
2018-07-20T18:25:00.293Z,25.59
2018-07-20T18:27:28.895Z,25.47
2018-07-20T18:29:57.514Z,25.38
2018-07-20T18:32:28.812Z,25.27
2018-07-20T18:34:57.301Z,25.16
2018-07-20T18:37:25.881Z,25.10
2018-07-20T18:39:54.407Z,25.04
2018-07-20T18:42:23.268Z,25.01
2018-07-20T18:44:51.720Z,24.93
2018-07-20T18:47:20.263Z,24.88
2018-07-20T18:49:48.809Z,24.83
2018-07-20T18:52:17.480Z,24.78
2018-07-20T18:54:45.949Z,24.70
2018-07-20T18:57:15.574Z,24.62
2018-07-20T18:59:44.126Z,24.54
2018-07-20T19:02:12.641Z,24.46
2018-07-20T19:04:41.222Z,24.42
2018-07-20T19:07:09.674Z,24.34
2018-07-20T19:09:38.190Z,24.30
2018-07-20T19:12:06.674Z,24.23
2018-07-20T19:14:35.295Z,24.18
2018-07-20T19:17:11.672Z,24.14
2018-07-20T19:19:48.703Z,24.11
2018-07-20T19:22:22.718Z,24.05
2018-07-20T19:24:51.566Z,24.01
2018-07-20T19:27:24.534Z,23.99
2018-07-20T19:29:53.067Z,23.98
2018-07-20T19:32:21.559Z,23.94
2018-07-20T19:34:50.333Z,23.90
2018-07-20T19:37:18.921Z,23.85
2018-07-20T19:39:47.516Z,23.82
2018-07-20T19:42:16.009Z,23.78
2018-07-20T19:44:44.502Z,23.72
2018-07-20T19:47:12.963Z,23.67
2018-07-20T19:49:41.721Z,23.65
2018-07-20T19:52:10.445Z,23.63
2018-07-20T19:54:39.020Z,23.58
2018-07-20T19:57:07.934Z,23.57
2018-07-20T19:59:36.637Z,23.54
2018-07-20T20:02:05.271Z,23.52
2018-07-20T20:04:33.737Z,23.51
2018-07-20T20:07:03.407Z,23.49
2018-07-20T20:09:31.866Z,23.46
2018-07-20T20:12:01.552Z,23.45
2018-07-20T20:14:30.062Z,23.41
2018-07-20T20:16:58.622Z,23.39
2018-07-20T20:19:27.161Z,23.37
2018-07-20T20:21:55.621Z,23.34
2018-07-20T20:24:24.202Z,23.34
2018-07-20T20:26:52.795Z,23.34
2018-07-20T20:29:21.348Z,23.30
2018-07-20T20:31:49.941Z,23.30
2018-07-20T20:34:18.424Z,23.29
2018-07-20T20:36:46.920Z,23.25
2018-07-20T20:39:15.487Z,23.25
2018-07-20T20:41:43.981Z,23.24
2018-07-20T20:44:12.518Z,23.21
2018-07-20T20:46:41.337Z,23.18
2018-07-20T20:49:09.932Z,23.11
2018-07-20T20:51:38.544Z,23.10
2018-07-20T20:54:07.754Z,23.06
2018-07-20T20:56:36.321Z,22.91
2018-07-20T20:59:05.040Z,22.70
2018-07-20T21:01:33.592Z,22.47
2018-07-20T21:04:02.041Z,22.23
2018-07-20T21:06:30.629Z,22.08
2018-07-20T21:08:59.132Z,21.93
2018-07-20T21:11:27.674Z,21.72
2018-07-20T21:13:56.222Z,21.49
2018-07-20T21:16:24.792Z,21.28
2018-07-20T21:18:53.341Z,21.14
2018-07-20T21:21:21.821Z,21.05
2018-07-20T21:23:50.421Z,20.96
2018-07-20T21:26:19.086Z,20.91
2018-07-20T21:28:47.663Z,20.87
2018-07-20T21:31:16.122Z,20.77
2018-07-20T21:33:44.646Z,20.70
2018-07-20T21:36:13.224Z,20.68
2018-07-20T21:38:42.052Z,20.71
2018-07-20T21:41:10.537Z,20.76
2018-07-20T21:43:39.163Z,20.76
2018-07-20T21:46:07.865Z,20.81
2018-07-20T21:48:36.477Z,20.83
2018-07-20T21:51:05.027Z,20.86
2018-07-20T21:53:33.600Z,20.87
2018-07-20T21:56:02.084Z,20.92
2018-07-20T21:58:30.583Z,20.92
2018-07-20T22:00:59.361Z,20.90
2018-07-20T22:03:27.953Z,20.90
2018-07-20T22:05:56.391Z,20.89
2018-07-20T22:08:25.000Z,20.87
2018-07-20T22:10:53.544Z,20.87
2018-07-20T22:13:22.098Z,20.77
2018-07-20T22:15:50.704Z,20.69
2018-07-20T22:18:19.174Z,20.70
2018-07-20T22:20:47.834Z,20.73
2018-07-20T22:23:16.514Z,20.66
2018-07-20T22:25:45.133Z,20.60
2018-07-20T22:28:34.476Z,20.59
2018-07-20T22:31:03.084Z,20.58
2018-07-20T22:33:31.660Z,20.60
2018-07-20T22:36:00.137Z,20.66
2018-07-20T22:38:28.605Z,20.74
2018-07-20T22:40:57.202Z,20.68
2018-07-20T22:43:25.772Z,20.64
2018-07-20T22:45:54.214Z,20.65
2018-07-20T22:48:22.780Z,20.63
2018-07-20T22:50:51.335Z,20.61
2018-07-20T22:53:19.942Z,20.63
2018-07-20T22:55:48.495Z,20.63
2018-07-20T22:58:17.021Z,20.61
2018-07-20T23:01:07.055Z,20.61
2018-07-20T23:03:35.574Z,20.63
2018-07-20T23:06:04.114Z,20.61
2018-07-20T23:08:32.590Z,20.49
2018-07-20T23:11:01.089Z,20.35
2018-07-20T23:13:29.566Z,20.13
2018-07-20T23:15:58.246Z,19.94
2018-07-20T23:18:26.740Z,19.78
2018-07-20T23:20:55.280Z,19.63
2018-07-20T23:23:23.839Z,19.48
2018-07-20T23:25:52.274Z,19.32
2018-07-20T23:28:20.879Z,19.10
2018-07-20T23:30:49.457Z,18.91
2018-07-20T23:33:17.978Z,18.85
2018-07-20T23:35:46.508Z,18.86
2018-07-20T23:38:15.007Z,18.92
2018-07-20T23:40:43.488Z,18.94
2018-07-20T23:43:12.055Z,18.89
2018-07-20T23:45:40.541Z,18.89
2018-07-20T23:48:09.035Z,18.91
2018-07-20T23:50:37.816Z,18.94
2018-07-20T23:53:06.320Z,18.95
2018-07-20T23:55:34.772Z,18.86
2018-07-20T23:58:03.255Z,18.82
